createdAt,value
2022-11-04T00:02:23.302Z,1.25
2022-11-04T00:04:49.827Z,3.50
2022-11-04T00:07:16.410Z,1.50
2022-11-04T00:09:44.300Z,1.50
2022-11-04T00:12:10.849Z,1.70
2022-11-04T00:14:37.659Z,2.33
2022-11-04T00:17:05.047Z,2.15
2022-11-04T00:19:31.639Z,2.17
2022-11-04T00:21:58.245Z,1.17
2022-11-04T00:24:24.761Z,1.65
2022-11-04T00:26:52.705Z,4.65
2022-11-04T00:29:19.203Z,1.70
2022-11-04T00:31:45.751Z,2.42
2022-11-04T00:34:12.237Z,2.47
2022-11-04T00:36:38.862Z,1.15
2022-11-04T00:39:05.364Z,2.60
2022-11-04T00:41:31.893Z,2.78
2022-11-04T00:44:01.476Z,1.10
2022-11-04T00:46:30.082Z,1.85
2022-11-04T00:48:57.521Z,1.25
2022-11-04T00:51:24.452Z,1.98
2022-11-04T00:53:51.827Z,4.28
2022-11-04T00:56:18.416Z,2.05
2022-11-04T00:58:45.095Z,2.45
2022-11-04T01:01:15.832Z,3.83
2022-11-04T01:03:42.360Z,2.58
2022-11-04T01:06:08.963Z,2.10
2022-11-04T01:08:35.522Z,2.70
2022-11-04T01:11:02.396Z,2.10
2022-11-04T01:13:28.941Z,2.25
2022-11-04T01:15:57.802Z,2.38
2022-11-04T01:18:25.943Z,2.38
2022-11-04T01:20:52.851Z,1.38
2022-11-04T01:23:19.437Z,1.98
2022-11-04T01:25:46.316Z,2.17
2022-11-04T01:28:12.877Z,1.50
2022-11-04T01:30:39.401Z,4.05
2022-11-04T01:33:05.908Z,5.22
2022-11-04T01:35:33.834Z,2.50
2022-11-04T01:38:00.349Z,3.10
2022-11-04T01:40:27.151Z,2.67
2022-11-04T01:42:53.901Z,4.07
2022-11-04T01:45:21.595Z,12.68
2022-11-04T01:47:53.746Z,4.95
2022-11-04T01:50:24.801Z,2.30
2022-11-04T01:52:56.201Z,2.10
2022-11-04T01:55:26.023Z,3.35
2022-11-04T01:58:00.892Z,7.78
2022-11-04T02:00:27.415Z,2.70
2022-11-04T02:02:59.206Z,2.60
2022-11-04T02:07:56.725Z,4.55
2022-11-04T02:10:25.459Z,4.82
2022-11-04T02:12:52.525Z,6.63
2022-11-04T02:15:27.260Z,2.13
2022-11-04T02:18:15.573Z,2.33
2022-11-04T02:21:20.531Z,2.35
2022-11-04T02:24:22.781Z,3.80
2022-11-04T02:29:52.479Z,3.05
2022-11-04T02:32:27.153Z,3.72
2022-11-04T02:35:01.712Z,3.22
2022-11-04T02:37:38.713Z,2.15
2022-11-04T02:40:16.492Z,9.93
2022-11-04T02:42:51.193Z,3.45
2022-11-04T02:45:24.226Z,3.10
2022-11-04T02:47:53.642Z,3.00
2022-11-04T02:50:26.893Z,1.85
2022-11-04T02:52:58.482Z,5.50
2022-11-04T02:55:28.652Z,12.48
2022-11-04T02:57:59.118Z,5.72
2022-11-04T03:00:28.649Z,3.38
2022-11-04T03:02:59.502Z,1.92
2022-11-04T03:05:28.150Z,2.72
2022-11-04T03:07:59.223Z,3.45
2022-11-04T03:10:31.540Z,3.65
2022-11-04T03:13:03.080Z,1.58
2022-11-04T03:15:34.160Z,2.72
2022-11-04T03:18:08.982Z,2.08
2022-11-04T03:20:38.457Z,1.38
2022-11-04T03:23:05.405Z,1.65
2022-11-04T03:25:36.602Z,1.65
2022-11-04T03:28:11.608Z,2.20
2022-11-04T03:30:42.710Z,2.63
2022-11-04T03:33:19.315Z,1.60
2022-11-04T03:35:46.117Z,2.08
2022-11-04T03:38:12.761Z,1.48
2022-11-04T03:40:39.499Z,3.40
2022-11-04T03:43:11.413Z,3.00
2022-11-04T03:45:41.610Z,39.05
2022-11-04T03:48:08.403Z,3.22
2022-11-04T03:50:40.663Z,1.77
2022-11-04T03:53:08.905Z,2.47
2022-11-04T03:55:45.629Z,1.88
2022-11-04T03:58:27.198Z,2.53
2022-11-04T04:01:02.696Z,13.40
2022-11-04T04:03:34.304Z,16.92
2022-11-04T04:06:09.209Z,7.60
2022-11-04T04:08:40.642Z,1.50
2022-11-04T04:11:18.080Z,7.97
2022-11-04T04:13:52.941Z,2.78
2022-11-04T04:16:27.925Z,1.55
2022-11-04T04:18:58.836Z,1.73
2022-11-04T04:21:31.725Z,2.57
2022-11-04T04:24:03.017Z,2.15
2022-11-04T04:26:33.203Z,3.83
2022-11-04T04:29:00.865Z,1.73
2022-11-04T04:31:30.529Z,6.50
2022-11-04T04:33:57.080Z,1.58
2022-11-04T04:36:23.831Z,3.42
2022-11-04T04:38:50.472Z,2.95
2022-11-04T04:41:19.740Z,4.38
2022-11-04T04:43:46.424Z,3.08
2022-11-04T04:46:13.459Z,3.20
2022-11-04T04:48:41.701Z,1.98
2022-11-04T04:51:08.418Z,3.88
2022-11-04T04:53:34.960Z,1.35
2022-11-04T04:56:01.771Z,2.30
2022-11-04T04:58:28.290Z,2.15
2022-11-04T05:00:54.840Z,2.20
2022-11-04T05:03:21.394Z,3.13
2022-11-04T05:05:50.217Z,2.85
2022-11-04T05:08:17.444Z,4.32
2022-11-04T05:10:44.171Z,2.13
2022-11-04T05:13:12.449Z,13.27
2022-11-04T05:15:38.958Z,6.53
2022-11-04T05:18:05.856Z,11.13
2022-11-04T05:20:32.542Z,2.80
2022-11-04T05:23:00.497Z,2.90
2022-11-04T05:25:27.608Z,2.30
2022-11-04T05:27:54.091Z,4.75
2022-11-04T05:30:20.909Z,5.43
2022-11-04T05:32:47.530Z,6.40
2022-11-04T05:35:14.145Z,2.95
2022-11-04T05:37:40.747Z,6.18
2022-11-04T05:40:10.021Z,6.45
2022-11-04T05:42:36.538Z,3.50
2022-11-04T05:45:03.412Z,2.88
2022-11-04T05:47:30.071Z,7.53
2022-11-04T05:49:56.572Z,3.47
2022-11-04T05:52:23.061Z,6.10
2022-11-04T05:54:49.586Z,3.30
2022-11-04T05:57:19.792Z,6.03
2022-11-04T05:59:46.305Z,5.22
2022-11-04T06:02:12.999Z,5.47
2022-11-04T06:04:39.917Z,2.20
2022-11-04T06:07:06.795Z,3.97
2022-11-04T06:09:33.317Z,3.35
2022-11-04T06:11:59.814Z,5.13
2022-11-04T06:14:27.704Z,3.78
2022-11-04T06:16:54.232Z,4.50
2022-11-04T06:19:20.729Z,8.10
2022-11-04T06:21:47.237Z,3.97
2022-11-04T06:24:13.752Z,3.47
2022-11-04T06:26:40.336Z,6.63
2022-11-04T06:29:07.062Z,3.95
2022-11-04T06:31:35.281Z,4.93
2022-11-04T06:34:01.846Z,3.97
2022-11-04T06:36:28.436Z,4.78
2022-11-04T06:38:58.702Z,9.15
2022-11-04T06:41:29.774Z,8.13
2022-11-04T06:43:56.311Z,5.75
2022-11-04T06:46:28.252Z,5.00
2022-11-04T06:51:23.454Z,3.45
2022-11-04T06:53:50.036Z,2.90
2022-11-04T06:56:17.163Z,4.38
2022-11-04T06:58:44.320Z,4.13
2022-11-04T07:01:15.869Z,4.03
2022-11-04T07:03:49.571Z,5.72
2022-11-04T07:06:18.039Z,3.63
2022-11-04T07:08:44.605Z,3.15
2022-11-04T07:11:11.549Z,4.45
2022-11-04T07:13:38.056Z,4.10
2022-11-04T07:16:05.446Z,3.53
2022-11-04T07:18:32.054Z,2.63
2022-11-04T07:20:59.353Z,2.95
2022-11-04T07:23:27.793Z,9.57
2022-11-04T07:25:59.752Z,3.65
2022-11-04T07:30:55.556Z,3.13
2022-11-04T07:33:22.211Z,5.40
2022-11-04T07:35:48.935Z,3.20
2022-11-04T07:38:15.628Z,5.30
2022-11-04T07:40:43.489Z,3.67
2022-11-04T07:43:10.031Z,2.80
2022-11-04T07:45:37.765Z,3.63
2022-11-04T07:48:04.427Z,6.55
2022-11-04T07:50:31.095Z,2.50
2022-11-04T07:52:59.014Z,5.95
2022-11-04T07:55:25.570Z,6.63
2022-11-04T07:57:54.667Z,1.90
2022-11-04T08:00:21.681Z,4.18
2022-11-04T08:02:48.568Z,4.32
2022-11-04T08:05:15.175Z,4.88
2022-11-04T08:07:41.852Z,5.35
2022-11-04T08:10:09.391Z,5.90
2022-11-04T08:12:36.398Z,5.35
2022-11-04T08:15:05.875Z,8.73
2022-11-04T08:17:32.598Z,4.60
2022-11-04T08:19:59.122Z,8.98
2022-11-04T08:22:30.189Z,6.20
2022-11-04T08:24:59.390Z,5.07
2022-11-04T08:27:25.997Z,5.63
2022-11-04T08:29:52.544Z,7.93
2022-11-04T08:32:20.470Z,5.25
2022-11-04T08:34:47.014Z,4.63
2022-11-04T08:37:24.608Z,3.92
2022-11-04T08:39:51.174Z,7.75
2022-11-04T08:42:17.692Z,5.50
2022-11-04T08:44:44.288Z,6.38
2022-11-04T08:47:10.786Z,8.27
2022-11-04T08:49:40.052Z,4.50
2022-11-04T08:52:06.612Z,4.70
2022-11-04T08:54:33.200Z,3.67
2022-11-04T08:56:59.692Z,6.07
2022-11-04T08:59:26.600Z,6.30
2022-11-04T09:01:53.160Z,10.48
2022-11-04T09:04:19.780Z,4.30
2022-11-04T09:06:47.835Z,8.05
2022-11-04T09:09:17.105Z,4.45
2022-11-04T09:11:44.917Z,5.05
2022-11-04T09:14:11.953Z,6.20
2022-11-04T09:16:40.520Z,5.25
2022-11-04T09:19:07.133Z,8.40
2022-11-04T09:21:33.699Z,2.75
2022-11-04T09:24:01.608Z,6.90
2022-11-04T09:26:28.172Z,4.50
2022-11-04T09:28:55.352Z,6.15
2022-11-04T09:31:22.386Z,3.70
2022-11-04T09:33:48.927Z,5.50
2022-11-04T09:36:15.444Z,8.95
2022-11-04T09:38:43.098Z,6.72
2022-11-04T09:41:28.345Z,11.48
2022-11-04T09:44:04.017Z,4.97
2022-11-04T09:46:32.906Z,6.45
2022-11-04T09:49:02.903Z,3.08
2022-11-04T09:51:53.269Z,5.82
2022-11-04T09:54:20.722Z,7.90
2022-11-04T09:56:50.665Z,5.85
2022-11-04T09:59:24.252Z,4.63
2022-11-04T10:02:00.504Z,6.68
2022-11-04T10:04:42.309Z,4.63
2022-11-04T10:07:22.657Z,4.63
2022-11-04T10:10:00.756Z,7.13
2022-11-04T10:12:46.570Z,6.80
2022-11-04T10:15:33.640Z,5.93
2022-11-04T10:18:17.190Z,6.35
2022-11-04T10:20:52.636Z,4.35
2022-11-04T10:23:22.802Z,6.35
2022-11-04T10:25:55.779Z,7.32
2022-11-04T10:28:30.313Z,6.88
2022-11-04T10:30:56.980Z,6.60
2022-11-04T10:33:30.034Z,6.53
2022-11-04T10:36:00.612Z,5.97
2022-11-04T10:38:36.250Z,5.10
2022-11-04T10:41:17.330Z,8.70
2022-11-04T10:43:45.755Z,5.32
2022-11-04T10:46:25.325Z,6.18
2022-11-04T10:48:59.733Z,6.53
2022-11-04T10:51:26.537Z,7.82
2022-11-04T10:53:56.053Z,5.25
2022-11-04T10:56:33.075Z,6.60
2022-11-04T10:59:20.300Z,3.83
2022-11-04T11:01:52.504Z,4.97
2022-11-04T11:04:30.023Z,4.63
2022-11-04T11:06:59.114Z,4.20
2022-11-04T11:09:27.509Z,3.95
2022-11-04T11:11:57.161Z,5.15
2022-11-04T11:14:34.848Z,3.55
2022-11-04T11:17:22.419Z,5.47
2022-11-04T11:19:54.740Z,6.13
2022-11-04T11:22:45.830Z,5.68
2022-11-04T11:25:22.442Z,8.80
2022-11-04T11:27:51.673Z,4.63
2022-11-04T11:30:26.021Z,5.55
2022-11-04T11:32:58.852Z,8.80
2022-11-04T11:35:31.044Z,3.72
2022-11-04T11:37:58.654Z,6.45
2022-11-04T11:40:30.704Z,3.17
2022-11-04T11:42:58.795Z,1.65
2022-11-04T11:45:27.718Z,3.63
2022-11-04T11:47:54.358Z,5.10
2022-11-04T11:50:23.737Z,7.00
2022-11-04T11:52:51.122Z,2.45
2022-11-04T11:55:21.385Z,4.00
2022-11-04T12:00:52.089Z,3.88
2022-11-04T12:03:29.574Z,2.85
2022-11-04T12:11:52.169Z,4.25
2022-11-04T12:14:28.379Z,3.78
2022-11-04T12:17:08.081Z,5.85
2022-11-04T12:19:51.406Z,4.45
2022-11-04T12:22:28.617Z,3.72
2022-11-04T12:25:02.826Z,3.03
2022-11-04T12:27:37.327Z,2.40
2022-11-04T12:30:08.019Z,4.75
2022-11-04T12:32:48.094Z,3.50
2022-11-04T12:35:45.784Z,3.42
2022-11-04T12:38:27.406Z,1.70
2022-11-04T12:41:34.175Z,3.15
2022-11-04T12:44:01.313Z,2.92
2022-11-04T12:46:35.692Z,2.63
2022-11-04T12:49:34.161Z,2.25
2022-11-04T12:52:10.858Z,4.50
2022-11-04T12:54:50.097Z,3.33
2022-11-04T12:57:28.134Z,1.55
2022-11-04T13:00:05.324Z,2.15
2022-11-04T13:02:36.555Z,4.57
2022-11-04T13:05:15.089Z,2.40
2022-11-04T13:07:50.009Z,2.55
2022-11-04T13:10:22.475Z,3.10
2022-11-04T13:12:53.466Z,3.15
2022-11-04T13:15:23.434Z,4.03
2022-11-04T13:17:55.591Z,3.70
2022-11-04T13:20:30.733Z,4.38
2022-11-04T13:23:03.477Z,6.80
2022-11-04T13:25:37.338Z,8.20
2022-11-04T13:28:04.288Z,6.47
2022-11-04T13:30:38.353Z,2.67
2022-11-04T13:33:14.204Z,3.50
2022-11-04T13:35:49.771Z,4.20
2022-11-04T13:38:20.030Z,2.88
2022-11-04T13:41:11.636Z,2.25
2022-11-04T13:43:46.351Z,4.18
2022-11-04T13:46:20.969Z,7.47
2022-11-04T13:48:56.863Z,2.72
2022-11-04T13:51:35.356Z,3.80
2022-11-04T13:54:02.616Z,4.80
2022-11-04T13:56:34.518Z,3.38
2022-11-04T13:59:06.233Z,5.70
2022-11-04T14:01:34.393Z,3.97
2022-11-04T14:04:24.039Z,2.45
2022-11-04T14:06:55.224Z,2.97
2022-11-04T14:09:53.859Z,2.55
2022-11-04T14:12:38.225Z,5.22
2022-11-04T14:15:10.401Z,4.45
2022-11-04T14:18:01.181Z,4.80
2022-11-04T14:20:31.460Z,5.85
2022-11-04T14:23:02.021Z,3.38
2022-11-04T14:25:32.478Z,3.67
2022-11-04T14:28:00.647Z,3.58
2022-11-04T14:30:42.676Z,5.57
2022-11-04T14:33:22.039Z,3.33
2022-11-04T14:35:49.185Z,3.13
2022-11-04T14:38:26.480Z,3.35
2022-11-04T14:41:13.928Z,2.92
2022-11-04T14:43:43.172Z,5.40
2022-11-04T14:46:12.130Z,4.32
2022-11-04T14:48:45.514Z,4.90
2022-11-04T14:51:22.684Z,6.00
2022-11-04T14:53:52.455Z,4.55
2022-11-04T14:56:24.164Z,4.75
2022-11-04T14:58:59.457Z,6.60
2022-11-04T15:01:33.872Z,5.13
2022-11-04T15:04:12.332Z,7.75
2022-11-04T15:06:54.420Z,9.60
2022-11-04T15:11:51.772Z,27.02
2022-11-04T15:14:22.994Z,29.55
2022-11-04T15:16:53.352Z,14.57
2022-11-04T15:19:28.270Z,10.82
2022-11-04T15:21:55.476Z,11.57
2022-11-04T15:24:23.587Z,8.32
2022-11-04T15:26:51.754Z,5.97
2022-11-04T15:29:22.013Z,6.35
2022-11-04T15:31:54.620Z,4.88
2022-11-04T15:34:22.502Z,6.55
2022-11-04T15:36:50.292Z,6.75
2022-11-04T15:39:21.133Z,4.50
2022-11-04T15:41:55.611Z,6.87
2022-11-04T15:44:24.781Z,8.93
2022-11-04T15:46:54.060Z,8.98
2022-11-04T15:49:23.926Z,9.75
2022-11-04T15:51:53.475Z,14.15
2022-11-04T15:54:22.930Z,7.15
2022-11-04T15:56:53.313Z,5.40
2022-11-04T15:59:25.283Z,8.45
2022-11-04T16:01:53.225Z,5.63
2022-11-04T16:04:23.454Z,6.75
2022-11-04T16:07:05.232Z,4.45
2022-11-04T16:09:45.298Z,8.07
2022-11-04T16:12:16.179Z,4.68
2022-11-04T16:14:50.626Z,6.53
2022-11-04T16:17:17.349Z,13.07
2022-11-04T16:19:50.306Z,16.05
2022-11-04T16:22:21.284Z,6.05
2022-11-04T16:24:51.311Z,5.35
2022-11-04T16:27:21.807Z,5.22
2022-11-04T16:29:54.028Z,6.13
2022-11-04T16:32:26.923Z,7.63
2022-11-04T16:34:57.196Z,6.75
2022-11-04T16:37:24.030Z,7.47
2022-11-04T16:39:50.683Z,8.27
2022-11-04T16:42:18.887Z,16.35
2022-11-04T16:44:49.877Z,16.33
2022-11-04T16:47:17.635Z,8.90
2022-11-04T16:49:44.356Z,8.20
2022-11-04T16:52:15.238Z,8.82
2022-11-04T16:54:41.911Z,8.13
2022-11-04T16:57:12.156Z,7.65
2022-11-04T16:59:40.916Z,8.27
2022-11-04T17:02:18.767Z,6.55
2022-11-04T17:04:45.465Z,5.38
2022-11-04T17:07:12.676Z,6.53
2022-11-04T17:09:39.638Z,6.68
2022-11-04T17:12:06.452Z,7.13
2022-11-04T17:14:33.068Z,6.40
2022-11-04T17:17:01.169Z,6.22
2022-11-04T17:19:33.442Z,9.55
2022-11-04T17:22:04.043Z,12.32
2022-11-04T17:24:30.614Z,11.48
2022-11-04T17:26:57.178Z,7.95
2022-11-04T17:29:23.715Z,9.15
2022-11-04T17:31:50.621Z,6.78
2022-11-04T17:34:18.549Z,9.57
2022-11-04T17:36:45.157Z,7.85
2022-11-04T17:39:11.689Z,9.05
2022-11-04T17:41:38.300Z,8.05
2022-11-04T17:44:04.970Z,11.43
2022-11-04T17:46:33.490Z,9.48
2022-11-04T17:49:00.445Z,9.60
2022-11-04T17:51:28.728Z,10.30
2022-11-04T17:53:55.377Z,12.95
2022-11-04T17:56:23.227Z,8.60
2022-11-04T17:58:50.195Z,11.45
2022-11-04T18:01:19.611Z,7.25
2022-11-04T18:03:46.804Z,9.18
2022-11-04T18:06:13.623Z,7.88
2022-11-04T18:08:41.488Z,9.05
2022-11-04T18:11:10.697Z,15.35
2022-11-04T18:13:37.305Z,10.55
2022-11-04T18:16:11.229Z,8.88
2022-11-04T18:18:38.331Z,9.80
2022-11-04T18:21:07.006Z,10.07
2022-11-04T18:23:33.933Z,11.13
2022-11-04T18:26:01.835Z,14.20
2022-11-04T18:28:28.434Z,14.07
2022-11-04T18:30:54.954Z,14.50
2022-11-04T18:33:21.578Z,15.10
2022-11-04T18:35:48.082Z,13.30
2022-11-04T18:38:14.615Z,12.23
2022-11-04T18:40:41.324Z,13.32
2022-11-04T18:43:09.559Z,11.07
2022-11-04T18:45:36.475Z,8.70
2022-11-04T18:48:03.399Z,12.05
2022-11-04T18:50:31.425Z,11.35
2022-11-04T18:52:58.245Z,12.40
2022-11-04T18:55:24.879Z,9.00
2022-11-04T18:57:54.222Z,10.88
2022-11-04T19:00:22.524Z,9.45
2022-11-04T19:02:49.288Z,9.27
2022-11-04T19:05:16.137Z,17.15
2022-11-04T19:07:43.250Z,10.35
2022-11-04T19:10:10.672Z,9.43
2022-11-04T19:12:37.295Z,9.52
2022-11-04T19:15:04.672Z,8.38
2022-11-04T19:17:35.413Z,8.90
2022-11-04T19:20:06.880Z,13.02
2022-11-04T19:22:38.127Z,12.68
2022-11-04T19:25:05.578Z,9.57
2022-11-04T19:27:32.215Z,10.55
2022-11-04T19:29:58.800Z,11.52
2022-11-04T19:32:25.513Z,9.13
2022-11-04T19:34:53.405Z,9.85
2022-11-04T19:37:22.224Z,11.95
2022-11-04T19:39:49.553Z,14.00
2022-11-04T19:42:16.214Z,10.93
2022-11-04T19:44:42.879Z,15.07
2022-11-04T19:47:09.574Z,13.80
2022-11-04T19:49:36.118Z,38.28
2022-11-04T19:52:04.519Z,24.75
2022-11-04T19:54:31.138Z,34.45
2022-11-04T19:56:57.877Z,29.63
2022-11-04T19:59:24.462Z,18.63
2022-11-04T20:01:51.533Z,12.43
2022-11-04T20:04:18.338Z,10.20
2022-11-04T20:06:45.101Z,11.13
2022-11-04T20:09:13.626Z,11.10
2022-11-04T20:11:40.794Z,33.42
2022-11-04T20:14:08.247Z,20.50
2022-11-04T20:16:35.246Z,17.50
2022-11-04T20:19:03.398Z,22.77
2022-11-04T20:21:32.565Z,24.98
2022-11-04T20:24:01.986Z,14.40
2022-11-04T20:26:31.426Z,20.63
2022-11-04T20:28:58.310Z,39.10
2022-11-04T20:31:27.020Z,39.45
2022-11-04T20:33:54.858Z,23.48
2022-11-04T20:36:23.377Z,13.00
2022-11-04T20:38:54.855Z,11.88
2022-11-04T20:41:21.778Z,12.10
2022-11-04T20:43:49.935Z,16.70
2022-11-04T20:46:18.885Z,18.48
2022-11-04T20:48:45.502Z,14.88
2022-11-04T20:51:14.791Z,22.42
2022-11-04T20:53:42.123Z,23.10
2022-11-04T20:56:11.673Z,19.38
2022-11-04T20:58:40.950Z,14.98
2022-11-04T21:01:10.971Z,19.35
2022-11-04T21:03:37.682Z,20.55
2022-11-04T21:06:04.791Z,20.42
2022-11-04T21:08:33.824Z,14.55
2022-11-04T21:11:01.455Z,20.05
2022-11-04T21:13:28.135Z,67.05
2022-11-04T21:15:57.413Z,11.23
2022-11-04T21:18:25.426Z,12.07
2022-11-04T21:20:52.796Z,17.50
2022-11-04T21:23:21.140Z,17.05
2022-11-04T21:25:49.964Z,17.48
2022-11-04T21:28:17.163Z,21.00
2022-11-04T21:30:46.902Z,16.52
2022-11-04T21:33:13.723Z,13.10
2022-11-04T21:35:42.961Z,15.27
2022-11-04T21:38:13.121Z,13.55
2022-11-04T21:40:40.360Z,10.80
2022-11-04T21:43:07.066Z,14.75
2022-11-04T21:45:34.690Z,19.20
2022-11-04T21:48:01.278Z,14.27
2022-11-04T21:50:28.120Z,16.80
2022-11-04T21:52:57.607Z,16.17
2022-11-04T21:55:25.615Z,11.65
2022-11-04T21:57:52.229Z,10.52
2022-11-04T22:00:18.852Z,14.55
2022-11-04T22:02:45.595Z,18.23
2022-11-04T22:05:14.662Z,16.50
2022-11-04T22:07:41.257Z,18.63
2022-11-04T22:10:09.714Z,17.63
2022-11-04T22:12:36.352Z,20.60
2022-11-04T22:15:03.279Z,23.85
2022-11-04T22:17:29.898Z,31.23
2022-11-04T22:19:56.478Z,23.35
2022-11-04T22:22:23.320Z,38.22
2022-11-04T22:24:49.869Z,24.33
2022-11-04T22:27:17.932Z,18.83
2022-11-04T22:29:44.597Z,19.10
2022-11-04T22:32:11.266Z,18.02
2022-11-04T22:34:37.918Z,18.63
2022-11-04T22:37:04.519Z,16.17
2022-11-04T22:39:31.081Z,21.73
2022-11-04T22:41:57.727Z,22.85
2022-11-04T22:44:26.150Z,25.33
2022-11-04T22:46:52.718Z,13.75
2022-11-04T22:49:19.208Z,14.95
2022-11-04T22:51:45.710Z,13.02
2022-11-04T22:54:13.799Z,13.85
2022-11-04T22:56:40.421Z,19.08
2022-11-04T22:59:07.392Z,22.92
2022-11-04T23:01:36.586Z,33.78
2022-11-04T23:04:03.925Z,24.38
2022-11-04T23:06:30.547Z,22.95
2022-11-04T23:09:00.447Z,16.02
2022-11-04T23:11:29.700Z,12.82
2022-11-04T23:13:58.207Z,12.77
2022-11-04T23:16:24.836Z,11.68
2022-11-04T23:18:52.723Z,12.02
2022-11-04T23:21:21.133Z,11.57
2022-11-04T23:23:47.649Z,13.82
2022-11-04T23:26:14.318Z,17.23
2022-11-04T23:28:40.849Z,13.27
2022-11-04T23:31:07.643Z,14.48
2022-11-04T23:33:34.183Z,13.70
2022-11-04T23:36:02.926Z,12.98
2022-11-04T23:38:30.142Z,11.20
2022-11-04T23:40:59.578Z,16.73
2022-11-04T23:43:26.154Z,16.63
2022-11-04T23:45:52.701Z,9.00
2022-11-04T23:48:19.378Z,10.48
2022-11-04T23:50:46.758Z,18.15
2022-11-04T23:53:16.718Z,10.75
2022-11-04T23:55:43.296Z,5.35
2022-11-04T23:58:09.995Z,8.85
